Time;durP1;ratioP1;P1;durP2;ratioP2;P2;SDS_P1;SDS_P2;PMS_P1;PMS_P2;Temp;Humidity;BMP_temperature;BMP_pressure;BME280_temperature;BME280_humidity;BME280_pressure;Samples;Min_cycle;Max_cycle;Signal;HPM_P1;HPM_P2
2022/07/04 00:00:06;;;;;;;5.45;2.63;;;;;;;15.25;97.71;98646.91;5124059;28;20020;-69
2022/07/04 00:02:32;;;;;;;8.57;2.42;;;;;;;15.18;97.27;98639.28;5124047;28;20361;-69
2022/07/04 00:04:57;;;;;;;5.57;2.40;;;;;;;15.18;98.36;98640.13;5124035;28;20023;-69
2022/07/04 00:07:23;;;;;;;6.53;2.20;;;;;;;15.06;97.29;98645.88;5123888;28;20024;-69
2022/07/04 00:09:48;;;;;;;4.97;2.28;;;;;;;15.05;98.02;98645.03;5123990;28;20019;-69
2022/07/04 00:12:14;;;;;;;5.25;2.13;;;;;;;14.97;97.43;98646.25;5127244;28;20024;-69
2022/07/04 00:14:39;;;;;;;4.35;2.22;;;;;;;15.03;98.14;98653.97;5127815;28;20024;-69
2022/07/04 00:17:04;;;;;;;4.47;2.30;;;;;;;14.94;98.27;98657.78;5127718;28;20019;-69
2022/07/04 00:19:30;;;;;;;7.00;2.10;;;;;;;14.93;99.05;98653.44;5127603;28;20019;-69
2022/07/04 00:21:55;;;;;;;7.55;2.40;;;;;;;14.88;98.93;98651.88;5127367;28;20050;-69
2022/07/04 00:24:21;;;;;;;6.82;2.30;;;;;;;14.90;98.72;98660.63;5127563;28;20026;-69
2022/07/04 00:26:46;;;;;;;2.35;1.98;;;;;;;14.86;98.16;98659.88;5127258;28;20369;-69
2022/07/04 00:29:11;;;;;;;4.97;2.45;;;;;;;14.77;97.77;98659.31;5127338;28;20067;-69
2022/07/04 00:31:37;;;;;;;8.32;2.90;;;;;;;14.87;98.84;98666.91;5127266;28;20027;-69
2022/07/04 00:34:02;;;;;;;5.07;2.03;;;;;;;14.71;98.14;98665.72;5127281;28;20020;-69
2022/07/04 00:36:28;;;;;;;5.38;2.10;;;;;;;14.54;98.87;98672.50;5127357;28;20087;-69
2022/07/04 00:38:53;;;;;;;5.85;2.63;;;;;;;14.46;100.00;98669.28;5127289;28;20301;-69
2022/07/04 00:41:19;;;;;;;5.07;2.45;;;;;;;14.39;100.00;98667.72;5127233;28;20042;-69
2022/07/04 00:43:59;;;;;;;7.70;2.85;;;;;;;14.39;100.00;98676.56;5127235;28;20026;-69
2022/07/04 00:46:25;;;;;;;5.20;2.60;;;;;;;14.40;100.00;98674.78;5126950;28;20024;-69
2022/07/04 00:48:50;;;;;;;5.68;2.35;;;;;;;14.40;100.00;98677.44;5126994;28;20249;-69
2022/07/04 00:51:16;;;;;;;4.18;2.40;;;;;;;14.40;100.00;98685.38;5127014;28;20023;-69
2022/07/04 00:53:41;;;;;;;4.47;2.13;;;;;;;14.43;100.00;98686.13;5126989;28;20072;-69
2022/07/04 00:56:07;;;;;;;3.92;2.38;;;;;;;14.39;99.84;98683.63;5126988;28;20039;-69
2022/07/04 00:58:33;;;;;;;4.43;2.20;;;;;;;14.31;99.57;98686.56;5126984;28;20035;-69
2022/07/04 01:00:59;;;;;;;3.58;2.58;;;;;;;14.27;99.40;98686.72;5126767;28;20192;-69
2022/07/04 01:03:24;;;;;;;9.13;2.88;;;;;;;14.24;100.00;98700.03;5126819;28;20026;-69
2022/07/04 01:05:51;;;;;;;5.00;2.35;;;;;;;14.19;99.45;98692.22;5126470;28;20050;-69
2022/07/04 01:08:16;;;;;;;8.63;2.38;;;;;;;14.14;100.00;98704.72;5126703;28;20047;-69
2022/07/04 01:10:42;;;;;;;7.20;2.60;;;;;;;14.08;100.00;98704.91;5126707;28;20215;-69
2022/07/04 01:13:07;;;;;;;9.20;2.80;;;;;;;13.96;99.98;98715.91;5126870;28;20083;-69
2022/07/04 01:15:33;;;;;;;6.63;2.80;;;;;;;13.89;100.00;98710.84;5126521;28;20019;-69
2022/07/04 01:17:58;;;;;;;5.60;2.70;;;;;;;13.83;100.00;98717.19;5126512;28;20020;-69
2022/07/04 01:20:23;;;;;;;5.78;2.67;;;;;;;13.85;100.00;98730.38;5126410;28;20030;-69
2022/07/04 01:22:49;;;;;;;6.70;2.15;;;;;;;13.84;100.00;98731.28;5125244;28;20265;-70
2022/07/04 01:25:14;;;;;;;6.88;2.90;;;;;;;13.80;100.00;98740.25;5126244;28;20205;-70
2022/07/04 01:27:40;;;;;;;4.90;2.53;;;;;;;13.85;100.00;98738.31;5126427;28;20243;-70
2022/07/04 01:30:06;;;;;;;5.57;2.88;;;;;;;13.87;100.00;98741.78;5126221;28;20015;-70
2022/07/04 01:32:32;;;;;;;3.60;2.40;;;;;;;13.85;100.00;98743.59;5125989;28;20054;-70
2022/07/04 01:34:57;;;;;;;3.67;2.20;;;;;;;13.69;100.00;98743.19;5126128;28;20315;-70
2022/07/04 01:37:22;;;;;;;7.47;2.33;;;;;;;13.63;100.00;98753.09;5125896;28;20084;-70
2022/07/04 01:39:48;;;;;;;4.65;2.72;;;;;;;13.66;100.00;98751.22;5126069;28;20020;-70
2022/07/04 01:42:13;;;;;;;7.07;2.60;;;;;;;13.60;100.00;98742.63;5126200;28;20023;-70
2022/07/04 01:44:38;;;;;;;4.65;2.67;;;;;;;13.60;100.00;98751.41;5126017;28;20023;-70
2022/07/04 01:47:05;;;;;;;6.18;2.90;;;;;;;13.52;100.00;98749.91;5125913;28;20051;-70
2022/07/04 01:49:30;;;;;;;5.88;2.75;;;;;;;13.45;100.00;98748.34;5125480;28;20028;-70
2022/07/04 01:51:56;;;;;;;5.47;2.72;;;;;;;13.45;100.00;98756.28;5125834;28;20035;-70
2022/07/04 01:54:21;;;;;;;4.32;2.80;;;;;;;13.34;100.00;98758.34;5125750;28;20081;-70
2022/07/04 01:56:47;;;;;;;7.55;2.55;;;;;;;13.32;100.00;98752.25;5125680;28;20145;-70
2022/07/04 01:59:12;;;;;;;5.38;2.50;;;;;;;13.17;100.00;98757.97;5125673;28;20039;-70
2022/07/04 02:01:38;;;;;;;9.75;2.92;;;;;;;13.15;100.00;98754.50;5125930;28;20028;-70
2022/07/04 02:04:05;;;;;;;4.28;2.47;;;;;;;13.15;100.00;98759.78;5125837;28;20016;-70
2022/07/04 02:06:32;;;;;;;7.45;3.10;;;;;;;13.08;100.00;98751.16;5125565;28;20034;-70
2022/07/04 02:09:15;;;;;;;4.60;2.65;;;;;;;12.90;100.00;98748.97;5125181;28;20020;-70
2022/07/04 02:14:25;;;;;;;6.43;2.60;;;;;;;12.80;100.00;98758.94;5125417;28;20061;-70
2022/07/04 02:16:51;;;;;;;8.55;3.13;;;;;;;12.77;100.00;98753.72;5125334;28;20023;-70
2022/07/04 02:19:16;;;;;;;5.63;3.00;;;;;;;12.78;100.00;98757.22;5125392;28;20020;-70
2022/07/04 02:21:43;;;;;;;5.47;2.85;;;;;;;12.67;100.00;98760.16;5124876;28;20023;-70
2022/07/04 02:24:09;;;;;;;6.40;2.88;;;;;;;12.69;100.00;98766.25;5124959;28;20218;-70
2022/07/04 02:26:34;;;;;;;7.95;3.00;;;;;;;12.66;100.00;98755.75;5124707;28;20035;-70
2022/07/04 02:28:59;;;;;;;4.20;2.72;;;;;;;12.56;100.00;98754.28;5124743;28;20382;-70
2022/07/04 02:31:26;;;;;;;10.32;2.63;;;;;;;12.54;100.00;98742.91;5124799;28;20019;-70
2022/07/04 02:33:51;;;;;;;8.05;3.28;;;;;;;12.61;100.00;98744.47;5116208;28;20252;-70
2022/07/04 02:36:17;;;;;;;9.05;3.67;;;;;;;12.65;100.00;98756.69;5124682;28;20027;-70
2022/07/04 02:38:42;;;;;;;7.88;2.80;;;;;;;12.45;100.00;98753.69;5124500;28;20090;-70
2022/07/04 02:41:08;;;;;;;4.88;2.78;;;;;;;12.49;100.00;98757.97;5124839;28;20065;-70
2022/07/04 02:43:33;;;;;;;4.85;2.90;;;;;;;12.41;100.00;98753.78;5124641;28;20027;-70
2022/07/04 02:45:58;;;;;;;12.30;2.60;;;;;;;12.45;100.00;98755.44;5124359;28;20023;-70
2022/07/04 02:48:24;;;;;;;6.03;2.97;;;;;;;12.25;100.00;98753.28;5124340;28;20069;-70
2022/07/04 02:50:49;;;;;;;4.57;3.00;;;;;;;12.33;100.00;98761.03;5124463;28;20043;-70
2022/07/04 02:53:14;;;;;;;7.50;3.05;;;;;;;12.36;100.00;98764.47;5124595;28;20104;-70
2022/07/04 02:55:40;;;;;;;5.28;2.83;;;;;;;12.23;100.00;98770.94;5124358;28;20027;-70
2022/07/04 02:58:05;;;;;;;6.35;3.55;;;;;;;12.32;100.00;98770.72;5106314;28;20027;-70
2022/07/04 03:00:30;;;;;;;8.85;3.13;;;;;;;12.30;100.00;98772.53;5124777;28;20023;-70
2022/07/04 03:02:56;;;;;;;7.15;3.25;;;;;;;12.25;100.00;98773.56;5124164;28;20050;-70
2022/07/04 03:05:22;;;;;;;6.35;2.60;;;;;;;12.01;100.00;98764.44;5124280;28;20019;-70
2022/07/04 03:07:47;;;;;;;7.93;3.00;;;;;;;11.98;100.00;98775.06;5124320;28;20015;-70
2022/07/04 03:10:12;;;;;;;6.43;2.83;;;;;;;12.00;100.00;98783.81;5124114;28;20023;-70
2022/07/04 03:12:38;;;;;;;5.97;2.60;;;;;;;11.98;100.00;98780.31;5124556;28;20027;-70
2022/07/04 03:15:04;;;;;;;5.03;2.50;;;;;;;11.94;100.00;98781.31;5124206;28;20048;-70
2022/07/04 03:17:30;;;;;;;3.92;2.65;;;;;;;11.94;100.00;98778.66;5123895;28;20227;-69
2022/07/04 03:19:58;;;;;;;8.90;3.08;;;;;;;11.94;100.00;98783.06;5124123;28;20042;-69
2022/07/04 03:22:23;;;;;;;6.55;3.55;;;;;;;11.94;100.00;98773.41;5124201;28;20065;-69
2022/07/04 03:24:49;;;;;;;6.32;2.80;;;;;;;11.95;100.00;98785.66;5123916;28;20047;-69
2022/07/04 03:27:14;;;;;;;4.53;2.90;;;;;;;11.95;100.00;98785.66;5124126;28;20024;-69
2022/07/04 03:29:40;;;;;;;6.82;3.33;;;;;;;11.84;100.00;98787.69;5124009;28;20020;-69
2022/07/04 03:32:05;;;;;;;14.63;4.10;;;;;;;11.81;100.00;98787.75;5124200;28;20086;-69
2022/07/04 03:34:31;;;;;;;12.35;3.30;;;;;;;11.79;100.00;98789.53;5123961;28;20326;-69
2022/07/04 03:36:57;;;;;;;26.92;3.92;;;;;;;11.84;100.00;98792.09;5124069;28;20024;-69
2022/07/04 03:39:22;;;;;;;13.23;4.15;;;;;;;11.87;100.00;98778.84;5123913;28;20037;-69
2022/07/04 03:41:48;;;;;;;9.45;3.33;;;;;;;11.78;100.00;98771.13;5124170;28;20023;-69
2022/07/04 03:44:13;;;;;;;11.18;3.40;;;;;;;11.71;100.00;98775.66;5123756;28;20020;-69
2022/07/04 03:46:39;;;;;;;15.80;4.18;;;;;;;11.78;100.00;98785.19;5127003;28;20342;-69
2022/07/04 03:49:05;;;;;;;12.32;3.60;;;;;;;11.80;100.00;98783.34;5128137;28;20019;-69
2022/07/04 03:51:30;;;;;;;6.05;3.60;;;;;;;11.79;100.00;98788.66;5128310;28;20016;-69
2022/07/04 03:53:56;;;;;;;7.45;3.33;;;;;;;11.78;100.00;98786.94;5128151;28;20249;-69
2022/07/04 03:56:21;;;;;;;9.77;2.97;;;;;;;11.59;100.00;98791.72;5128097;28;20027;-69
2022/07/04 03:58:48;;;;;;;9.05;3.53;;;;;;;11.59;100.00;98786.44;5124260;28;20049;-69
2022/07/04 04:01:16;;;;;;;7.07;3.35;;;;;;;11.70;100.00;98796.78;5107617;28;20089;-69
2022/07/04 04:06:25;;;;;;;10.20;3.80;;;;;;;11.80;100.00;98791.28;5107462;28;20078;-69
2022/07/04 04:08:50;;;;;;;6.55;3.67;;;;;;;11.77;100.00;98791.34;5107328;28;20043;-69
2022/07/04 04:11:16;;;;;;;5.95;2.17;;;;;;;11.68;100.00;98796.81;5107340;28;20076;-69
2022/07/04 04:13:41;;;;;;;5.55;3.25;;;;;;;11.69;100.00;98795.91;5107407;28;20024;-69
2022/07/04 04:16:06;;;;;;;10.43;3.08;;;;;;;11.73;100.00;98800.22;5107432;28;20026;-69
2022/07/04 04:18:32;;;;;;;5.85;3.15;;;;;;;11.78;100.00;98802.75;5107223;28;20020;-69
2022/07/04 04:20:57;;;;;;;7.80;3.17;;;;;;;11.81;100.00;98803.59;5107231;28;20081;-69
2022/07/04 04:23:23;;;;;;;4.78;3.13;;;;;;;11.78;100.00;98808.91;5107143;28;20095;-69
2022/07/04 04:25:48;;;;;;;8.88;3.90;;;;;;;11.85;100.00;98815.78;5107026;28;20054;-69
2022/07/04 04:28:13;;;;;;;8.45;3.63;;;;;;;11.81;100.00;98814.13;5106893;28;20024;-69
2022/07/04 04:30:39;;;;;;;11.80;3.47;;;;;;;11.83;100.00;98828.13;5107042;28;20031;-69
2022/07/04 04:33:04;;;;;;;8.13;3.35;;;;;;;11.93;100.00;98828.81;5106951;28;20020;-69
2022/07/04 04:35:29;;;;;;;6.60;3.30;;;;;;;12.12;100.00;98832.78;5126226;28;20090;-69
2022/07/04 04:37:55;;;;;;;6.45;3.17;;;;;;;13.39;100.00;98836.66;5127281;28;20019;-69
2022/07/04 04:40:20;;;;;;;9.70;2.65;;;;;;;15.01;91.85;98844.88;5126995;28;20330;-69
2022/07/04 04:42:45;;;;;;;3.33;2.25;;;;;;;16.60;82.97;98843.41;5127271;28;20026;-69
2022/07/04 04:45:11;;;;;;;4.90;2.28;;;;;;;17.60;76.70;98839.16;5127101;28;20031;-69
2022/07/04 04:47:36;;;;;;;5.47;2.22;;;;;;;18.49;72.56;98847.47;5127047;28;20090;-69
2022/07/04 04:50:02;;;;;;;6.55;2.58;;;;;;;19.20;70.15;98855.44;5127174;28;20091;-70
2022/07/04 04:52:27;;;;;;;2.72;1.52;;;;;;;19.42;67.37;98847.25;5126910;28;20258;-70
2022/07/04 04:54:52;;;;;;;3.45;1.70;;;;;;;19.77;66.81;98851.59;5126973;28;20088;-70
2022/07/04 04:57:18;;;;;;;5.78;2.50;;;;;;;20.30;65.66;98862.13;5123766;28;20019;-71
2022/07/04 04:59:43;;;;;;;5.43;1.80;;;;;;;20.64;64.18;98854.84;5122631;28;20015;-71
2022/07/04 05:02:09;;;;;;;11.27;1.65;;;;;;;21.09;63.59;98860.28;5124419;27;20027;-71
2022/07/04 05:04:34;;;;;;;5.85;2.05;;;;;;;21.50;62.37;98854.28;5125264;27;20244;-69
2022/07/04 05:07:00;;;;;;;2.65;1.60;;;;;;;21.72;61.41;98860.06;5126523;28;20039;-70
2022/07/04 05:09:25;;;;;;;3.55;1.60;;;;;;;22.07;61.03;98866.84;5126622;28;20019;-70
2022/07/04 05:11:51;;;;;;;5.88;1.60;;;;;;;22.33;60.79;98866.09;5126673;28;20378;-70
2022/07/04 05:14:16;;;;;;;8.10;1.40;;;;;;;22.70;58.79;98862.81;5126699;28;20023;-70
2022/07/04 05:16:42;;;;;;;8.45;1.83;;;;;;;22.78;59.64;98876.63;5126596;28;20064;-70
2022/07/04 05:19:08;;;;;;;3.33;1.48;;;;;;;23.13;58.66;98867.13;5126617;28;20012;-70
2022/07/04 05:21:33;;;;;;;4.60;1.77;;;;;;;23.25;58.45;98866.31;5126477;28;20219;-70
2022/07/04 05:23:59;;;;;;;4.93;1.70;;;;;;;23.45;58.31;98876.63;5126481;28;20031;-70
2022/07/04 05:26:24;;;;;;;2.83;1.52;;;;;;;23.69;57.50;98882.16;5126288;28;20110;-70
2022/07/04 05:28:50;;;;;;;6.82;1.45;;;;;;;23.66;56.18;98872.44;5126214;28;20035;-70
2022/07/04 05:31:15;;;;;;;3.13;1.63;;;;;;;23.72;56.72;98876.53;5126332;28;20046;-70
2022/07/04 05:33:41;;;;;;;7.38;1.70;;;;;;;23.51;58.18;98868.16;5126192;28;20072;-70
2022/07/04 05:36:07;;;;;;;2.13;1.38;;;;;;;23.93;57.47;98875.06;5126213;28;20024;-69
2022/07/04 05:38:32;;;;;;;6.65;1.60;;;;;;;24.77;55.61;98875.28;5126116;28;20026;-70
2022/07/04 05:40:58;;;;;;;3.38;1.50;;;;;;;24.73;54.91;98863.03;5126364;28;20078;-70
2022/07/04 05:43:25;;;;;;;3.88;1.70;;;;;;;24.79;55.65;98862.56;5126271;28;20034;-69
2022/07/04 05:45:51;;;;;;;3.30;1.33;;;;;;;24.92;54.96;98858.00;5125954;28;20024;-70
2022/07/04 05:48:16;;;;;;;3.03;1.50;;;;;;;25.12;54.61;98865.47;5125820;28;20019;-69
2022/07/04 05:50:42;;;;;;;4.95;1.48;;;;;;;25.56;54.04;98856.75;5125929;28;20350;-69
2022/07/04 05:53:07;;;;;;;5.78;1.75;;;;;;;25.57;53.96;98855.78;5126105;28;20061;-69
2022/07/04 05:55:34;;;;;;;6.10;2.08;;;;;;;25.72;53.64;98853.75;5125810;28;20312;-69
2022/07/04 05:57:59;;;;;;;6.20;1.83;;;;;;;26.68;50.96;98859.56;5126036;28;20376;-70
2022/07/04 06:00:25;;;;;;;4.97;1.73;;;;;;;26.11;52.64;98845.28;5125718;28;20023;-69
2022/07/04 06:02:50;;;;;;;3.40;1.50;;;;;;;26.76;50.53;98849.84;5125662;28;20023;-70
2022/07/04 06:05:15;;;;;;;3.35;1.60;;;;;;;26.77;50.13;98850.72;5125587;28;20417;-70
2022/07/04 06:07:41;;;;;;;10.25;1.70;;;;;;;26.63;50.07;98837.47;5125356;28;20305;-70
2022/07/04 06:10:07;;;;;;;8.70;1.90;;;;;;;26.81;50.00;98849.47;5125257;28;20065;-70
2022/07/04 06:12:32;;;;;;;6.15;2.30;;;;;;;27.78;45.34;98845.72;5125507;28;20085;-70
2022/07/04 06:14:58;;;;;;;7.47;2.53;;;;;;;26.86;47.24;98836.47;5125431;28;20019;-70
2022/07/04 06:17:24;;;;;;;5.00;2.17;;;;;;;27.48;46.65;98840.22;5125357;28;20026;-70
2022/07/04 06:19:49;;;;;;;3.88;2.13;;;;;;;27.90;44.58;98841.97;5125313;28;20020;-70
2022/07/04 06:22:15;;;;;;;6.85;2.30;;;;;;;28.46;44.16;98835.22;5125294;28;20069;-70
2022/07/04 06:24:40;;;;;;;6.72;2.60;;;;;;;28.37;44.80;98838.69;5125182;28;20046;-70
2022/07/04 06:27:06;;;;;;;7.82;2.30;;;;;;;27.96;44.29;98833.34;5125393;28;20306;-70
2022/07/04 06:29:31;;;;;;;6.57;2.25;;;;;;;28.11;44.40;98829.31;5125077;28;20023;-70
2022/07/04 06:31:56;;;;;;;5.00;1.95;;;;;;;28.45;43.28;98819.97;5125104;28;20027;-70
2022/07/04 06:37:06;;;;;;;6.20;2.25;;;;;;;28.51;43.83;98824.81;5125058;28;20034;-70
2022/07/04 06:39:31;;;;;;;7.13;2.30;;;;;;;28.81;42.67;98827.50;5124962;28;20019;-70
2022/07/04 06:41:57;;;;;;;5.30;1.92;;;;;;;28.52;44.48;98818.41;5124965;28;20027;-70
2022/07/04 06:44:22;;;;;;;6.45;2.38;;;;;;;29.01;41.85;98834.66;5124900;28;20019;-70
2022/07/04 06:46:48;;;;;;;7.95;2.30;;;;;;;29.23;40.71;98822.72;5124858;28;20056;-70
2022/07/04 06:49:13;;;;;;;5.40;1.67;;;;;;;29.47;42.33;98831.31;5124784;28;20031;-70
2022/07/04 06:51:39;;;;;;;5.03;1.83;;;;;;;29.43;41.69;98834.47;5124847;28;20020;-70
2022/07/04 06:54:04;;;;;;;7.63;2.00;;;;;;;28.86;42.48;98827.91;5125000;28;20307;-70
2022/07/04 06:56:29;;;;;;;7.25;2.05;;;;;;;29.64;41.51;98837.94;5124763;28;20346;-70
2022/07/04 06:58:55;;;;;;;5.70;2.15;;;;;;;30.21;40.63;98832.44;5125002;28;20207;-70
2022/07/04 07:01:20;;;;;;;8.98;1.88;;;;;;;29.37;42.52;98830.47;5124662;28;20019;-70
2022/07/04 07:03:46;;;;;;;9.05;2.08;;;;;;;29.13;42.47;98817.31;5124621;28;20023;-70
2022/07/04 07:06:11;;;;;;;4.40;1.70;;;;;;;29.51;41.63;98827.31;5124717;28;20073;-70
2022/07/04 07:08:36;;;;;;;7.35;1.88;;;;;;;29.78;41.00;98818.47;5124843;28;20020;-70
2022/07/04 07:11:12;;;;;;;4.90;1.98;;;;;;;31.03;39.92;98840.53;5124596;28;20227;-70
2022/07/04 07:13:42;;;;;;;3.17;1.48;;;;;;;31.57;39.97;98834.13;5124812;28;20047;-70
2022/07/04 07:16:07;;;;;;;6.72;1.75;;;;;;;31.02;39.97;98824.34;5124607;28;20412;-70
2022/07/04 07:18:33;;;;;;;2.92;1.40;;;;;;;31.95;39.44;98835.72;5124518;28;20020;-70
2022/07/04 07:20:58;;;;;;;5.13;1.58;;;;;;;31.82;38.71;98830.66;5126165;28;20023;-70
2022/07/04 07:23:24;;;;;;;5.72;1.70;;;;;;;31.16;38.90;98826.53;5128748;28;20023;-70
2022/07/04 07:25:49;;;;;;;4.82;1.60;;;;;;;32.03;39.73;98839.34;5128630;28;20054;-69
2022/07/04 07:28:14;;;;;;;5.32;1.63;;;;;;;31.94;38.43;98828.53;5128543;28;20016;-69
2022/07/04 07:30:40;;;;;;;5.55;1.55;;;;;;;30.17;39.79;98811.97;5128849;28;20326;-70
2022/07/04 07:33:05;;;;;;;5.43;1.85;;;;;;;31.56;39.11;98840.59;5128618;28;20020;-70
2022/07/04 07:35:31;;;;;;;2.92;1.33;;;;;;;32.72;36.66;98842.88;5110310;28;20027;-70
2022/07/04 07:37:56;;;;;;;3.63;1.45;;;;;;;31.85;38.05;98830.34;5128481;28;20027;-70
2022/07/04 07:40:22;;;;;;;5.68;1.33;;;;;;;31.87;39.77;98841.94;5128421;28;20019;-70
2022/07/04 07:42:47;;;;;;;5.07;1.58;;;;;;;31.34;38.85;98832.91;5128494;28;20034;-70
2022/07/04 07:45:12;;;;;;;5.63;1.38;;;;;;;32.95;36.64;98844.00;5128445;28;20023;-70
2022/07/04 07:47:38;;;;;;;5.78;1.20;;;;;;;32.43;37.52;98841.50;5128217;28;20027;-70
2022/07/04 07:50:04;;;;;;;5.75;1.70;;;;;;;32.58;37.25;98846.19;5128213;28;20031;-70
2022/07/04 07:52:30;;;;;;;3.53;1.50;;;;;;;33.01;35.67;98848.81;5128102;28;20066;-70
2022/07/04 07:54:55;;;;;;;5.00;1.45;;;;;;;32.92;36.10;98849.81;5128464;28;20315;-70
2022/07/04 07:57:20;;;;;;;2.60;1.30;;;;;;;32.51;36.26;98845.13;5128092;28;20072;-70
2022/07/04 07:59:46;;;;;;;5.30;1.52;;;;;;;33.08;35.55;98847.13;5128119;28;20079;-70
2022/07/04 08:02:11;;;;;;;2.67;1.33;;;;;;;32.63;36.26;98838.41;5109833;28;20214;-70
2022/07/04 08:04:41;;;;;;;4.35;1.27;;;;;;;32.81;36.41;98847.31;5128027;28;20041;-70
2022/07/04 08:07:09;;;;;;;4.90;1.40;;;;;;;33.25;36.02;98847.19;5127966;28;20051;-70
2022/07/04 08:09:35;;;;;;;4.63;1.40;;;;;;;32.96;36.14;98839.41;5127848;28;20030;-70
2022/07/04 08:12:03;;;;;;;2.75;1.08;;;;;;;33.13;35.02;98842.00;5127858;28;20019;-70
2022/07/04 08:14:29;;;;;;;4.63;1.27;;;;;;;32.79;34.29;98832.16;5128021;28;20015;-70
2022/07/04 08:16:56;;;;;;;6.32;0.80;;;;;;;33.38;35.21;98845.72;5128044;28;20022;-70
2022/07/04 08:19:24;;;;;;;5.47;1.77;;;;;;;33.02;35.46;98828.69;5127765;28;20019;-70
2022/07/04 08:21:49;;;;;;;6.28;1.20;;;;;;;32.74;33.55;98821.72;5127700;28;20020;-70
2022/07/04 08:24:15;;;;;;;1.98;1.00;;;;;;;31.85;36.09;98827.63;5127607;28;20024;-70
2022/07/04 08:26:41;;;;;;;3.05;1.15;;;;;;;32.23;33.92;98824.50;5127388;28;20358;-70
2022/07/04 08:29:07;;;;;;;2.70;1.27;;;;;;;32.58;34.82;98824.38;5127690;28;20395;-70
2022/07/04 08:31:32;;;;;;;6.07;1.27;;;;;;;32.61;33.32;98818.59;5127264;28;20015;-70
2022/07/04 08:33:57;;;;;;;4.78;1.20;;;;;;;32.57;34.42;98811.78;5127444;28;20031;-70
2022/07/04 08:36:23;;;;;;;3.47;1.05;;;;;;;32.30;36.12;98817.38;5127346;28;20024;-70
2022/07/04 08:38:48;;;;;;;2.90;1.10;;;;;;;33.15;35.26;98827.38;5127356;28;20024;-70
2022/07/04 08:41:16;;;;;;;2.20;0.90;;;;;;;33.48;33.72;98826.44;5127292;28;20023;-70
2022/07/04 08:43:42;;;;;;;2.88;1.08;;;;;;;33.65;32.97;98822.69;5127199;28;20030;-70
2022/07/04 08:46:10;;;;;;;5.10;1.13;;;;;;;33.46;33.59;98809.38;5127209;28;20051;-70
2022/07/04 08:48:38;;;;;;;3.65;1.17;;;;;;;32.12;36.24;98802.97;5127060;28;20016;-70
2022/07/04 08:51:11;;;;;;;1.30;1.00;;;;;;;32.12;35.91;98793.94;5127118;28;20067;-70
2022/07/04 08:53:39;;;;;;;3.40;1.00;;;;;;;31.74;35.85;98792.47;5127066;28;20346;-70
2022/07/04 08:58:51;;;;;;;8.23;1.30;;;;;;;32.66;34.35;98789.00;5126975;28;20039;-70
2022/07/04 09:01:17;;;;;;;3.88;1.02;;;;;;;33.26;33.67;98786.13;5127000;28;20320;-70
2022/07/04 09:03:44;;;;;;;4.40;1.10;;;;;;;32.87;32.44;98781.25;5126892;28;20023;-70
2022/07/04 09:06:13;;;;;;;3.95;0.90;;;;;;;32.19;34.22;98773.22;5126892;28;20019;-70
2022/07/04 09:08:40;;;;;;;2.65;1.00;;;;;;;31.91;34.42;98780.69;5126705;28;20024;-70
2022/07/04 09:11:06;;;;;;;3.33;0.90;;;;;;;32.08;32.06;98760.72;5126676;28;20020;-70
2022/07/04 09:13:32;;;;;;;1.90;0.80;;;;;;;32.36;33.71;98775.91;5126679;28;20298;-70
2022/07/04 09:15:58;;;;;;;3.47;1.33;;;;;;;32.59;34.65;98771.56;5126655;28;20076;-70
2022/07/04 09:18:29;;;;;;;2.30;0.88;;;;;;;33.09;32.66;98779.78;5126613;28;20020;-70
2022/07/04 09:20:57;;;;;;;4.15;1.27;;;;;;;32.12;33.16;98772.16;5126525;28;20058;-69
2022/07/04 09:23:28;;;;;;;5.90;1.10;;;;;;;31.96;35.32;98778.38;5126680;28;20027;-70
2022/07/04 09:26:06;;;;;;;;;;;;;;;32.67;34.83;98779.78;5126739;28;20044;-70
2022/07/04 09:28:32;;;;;;;2.25;1.00;;;;;;;33.18;34.57;98788.84;5126488;28;20232;-70
2022/07/04 09:30:58;;;;;;;3.95;0.98;;;;;;;32.84;34.38;98775.25;5126363;28;20024;-70
2022/07/04 09:33:44;;;;;;;3.85;0.75;;;;;;;32.66;33.87;98772.63;5126488;28;20057;-70
2022/07/04 09:36:16;;;;;;;3.85;0.90;;;;;;;33.16;33.08;98769.03;5126236;28;20346;-70
2022/07/04 09:38:43;;;;;;;3.15;0.80;;;;;;;32.75;30.56;98763.44;5126437;28;20091;-70
2022/07/04 09:41:34;;;;;;;2.50;0.90;;;;;;;32.38;32.83;98757.53;5126120;28;20047;-70
2022/07/04 09:44:04;;;;;;;;;;;;;;;32.91;33.90;98769.00;5125887;28;20203;-70
2022/07/04 09:46:29;;;;;;;2.88;1.25;;;;;;;32.27;33.65;98760.47;5126237;28;19903;-70
2022/07/04 09:48:55;;;;;;;3.58;1.02;;;;;;;31.76;35.00;98760.47;5125912;28;20053;-70
2022/07/04 09:51:40;;;;;;;2.33;1.05;;;;;;;32.30;33.31;98771.06;5125946;28;20080;-70
2022/07/04 09:54:15;;;;;;;8.20;1.50;;;;;;;31.93;35.33;98777.81;5126135;28;20033;-70
2022/07/04 09:56:42;;;;;;;3.42;1.10;;;;;;;32.03;32.72;98763.09;5125838;28;20023;-70
2022/07/04 09:59:07;;;;;;;1.92;0.93;;;;;;;32.10;34.95;98769.59;5125792;28;20023;-70
2022/07/04 10:01:33;;;;;;;3.67;1.20;;;;;;;31.34;36.35;98764.88;5125941;28;20026;-70
2022/07/04 10:03:58;;;;;;;3.83;1.20;;;;;;;30.84;36.81;98771.81;5125957;28;20307;-70
2022/07/04 10:06:25;;;;;;;3.30;0.90;;;;;;;31.62;35.29;98771.94;5125636;28;20259;-70
2022/07/04 10:08:51;;;;;;;2.60;0.98;;;;;;;31.86;34.53;98766.69;5125557;28;20223;-70
2022/07/04 10:11:18;;;;;;;3.90;1.25;;;;;;;31.86;34.56;98763.97;5125790;28;20024;-70
2022/07/04 10:13:43;;;;;;;4.68;0.95;;;;;;;31.67;32.30;98756.00;5125747;28;20211;-70
2022/07/04 10:16:09;;;;;;;3.55;1.00;;;;;;;31.52;33.83;98757.56;5125574;28;20024;-70
2022/07/04 10:18:35;;;;;;;3.60;0.98;;;;;;;31.14;34.98;98766.03;5125398;28;20016;-70
2022/07/04 10:21:00;;;;;;;3.10;1.10;;;;;;;30.92;36.46;98753.75;5125373;28;20307;-70
2022/07/04 10:23:31;;;;;;;6.07;1.00;;;;;;;30.91;36.79;98762.06;5125337;28;20024;-70
2022/07/04 10:25:57;;;;;;;3.97;1.00;;;;;;;31.30;36.93;98763.50;5125082;28;20036;-70
2022/07/04 10:28:23;;;;;;;3.78;1.15;;;;;;;30.88;36.96;98763.19;5125066;28;20027;-70
2022/07/04 10:30:51;;;;;;;2.20;0.70;;;;;;;31.44;35.89;98764.81;5125191;28;20331;-70
2022/07/04 10:33:25;;;;;;;3.15;0.88;;;;;;;31.75;33.42;98758.75;5125326;28;20047;-70
2022/07/04 10:35:56;;;;;;;6.53;1.00;;;;;;;31.66;34.60;98759.72;5125130;28;20019;-70
2022/07/04 10:38:29;;;;;;;2.60;0.93;;;;;;;31.58;31.85;98756.09;5125075;28;20023;-70
2022/07/04 10:40:57;;;;;;;2.92;1.00;;;;;;;31.55;32.30;98751.81;5125076;28;20024;-70
2022/07/04 10:43:37;;;;;;;2.50;0.82;;;;;;;31.97;32.87;98754.69;5124912;28;20051;-70
2022/07/04 10:46:02;;;;;;;3.42;0.88;;;;;;;31.96;34.00;98751.13;5124927;28;20270;-70
2022/07/04 10:48:28;;;;;;;2.47;0.90;;;;;;;30.38;35.01;98745.59;5124849;28;20031;-70
2022/07/04 10:51:06;;;;;;;5.63;1.00;;;;;;;29.36;35.27;98730.28;5124852;28;20023;-70
2022/07/04 10:53:33;;;;;;;3.53;1.15;;;;;;;30.11;36.74;98741.94;5124831;28;20024;-70
2022/07/04 10:56:17;;;;;;;3.50;1.15;;;;;;;30.50;37.53;98743.53;5124672;28;20024;-70
2022/07/04 10:58:42;;;;;;;2.45;1.10;;;;;;;30.39;38.57;98743.72;5124846;28;20050;-70
2022/07/04 11:01:16;;;;;;;2.30;0.93;;;;;;;30.60;36.23;98747.91;5124721;28;20019;-70
2022/07/04 11:03:45;;;;;;;3.42;0.95;;;;;;;30.96;36.68;98754.28;5124664;28;20023;-70
2022/07/04 11:06:32;;;;;;;1.40;0.80;;;;;;;31.27;34.90;98749.31;5124912;28;20367;-70
2022/07/04 11:09:17;;;;;;;2.80;1.00;;;;;;;31.09;38.33;98749.31;5124539;28;20373;-70
2022/07/04 11:12:00;;;;;;;2.80;0.93;;;;;;;30.90;36.14;98730.41;5124637;28;20342;-70
2022/07/04 11:14:45;;;;;;;2.90;1.05;;;;;;;30.48;36.37;98724.66;5124526;28;20019;-70
2022/07/04 11:17:19;;;;;;;3.72;0.80;;;;;;;30.52;36.91;98725.19;5124611;28;20307;-70
2022/07/04 11:19:45;;;;;;;3.15;0.90;;;;;;;30.63;36.96;98725.00;5124539;28;20019;-70
2022/07/04 11:22:11;;;;;;;1.70;0.93;;;;;;;30.32;37.73;98720.88;5124527;28;20082;-70
2022/07/04 11:24:38;;;;;;;2.47;1.00;;;;;;;29.58;37.90;98702.81;5124517;28;20022;-70
2022/07/04 11:27:07;;;;;;;3.40;1.00;;;;;;;29.21;39.42;98706.28;5124379;28;20068;-70
2022/07/04 11:29:34;;;;;;;3.13;0.70;;;;;;;28.88;40.28;98703.13;5124344;28;20019;-70
2022/07/04 11:31:59;;;;;;;1.80;0.93;;;;;;;29.09;40.67;98702.03;5124639;28;20028;-70
2022/07/04 11:34:31;;;;;;;6.72;0.98;;;;;;;29.24;39.09;98706.00;5124402;28;20248;-70
2022/07/04 11:36:58;;;;;;;;;;;;;;;29.30;38.49;98707.31;5125045;28;20030;-70
2022/07/04 11:39:23;;;;;;;2.20;0.93;;;;;;;29.01;38.86;98698.31;5124291;28;19935;-70